Time;durP1;ratioP1;P1;durP2;ratioP2;P2;SDS_P1;SDS_P2;PMS_P1;PMS_P2;Temp;Humidity;BMP_temperature;BMP_pressure;BME280_temperature;BME280_humidity;BME280_pressure;Samples;Min_cycle;Max_cycle;Signal;HPM_P1;HPM_P2
2021/10/11 00:00:43;;;;;;;3.58;2.70;;;;;;;;;;5108509;27;20089;-60
2021/10/11 00:03:08;;;;;;;5.22;4.03;;;;;;;;;;5112466;27;20100;-60
2021/10/11 00:05:34;;;;;;;5.35;3.33;;;;;;;;;;5111674;27;20088;-60
2021/10/11 00:07:59;;;;;;;4.45;3.60;;;;;;;;;;5098731;28;20116;-60
2021/10/11 00:10:25;;;;;;;4.50;3.65;;;;;;;;;;5112793;27;20051;-60
2021/10/11 00:12:53;;;;;;;3.35;2.95;;;;;;;;;;5110027;27;20038;-61
2021/10/11 00:15:24;;;;;;;7.72;4.22;;;;;;;;;;5111634;27;20054;-61
2021/10/11 00:17:50;;;;;;;4.00;3.50;;;;;;;;;;5113770;27;20036;-61
2021/10/11 00:20:17;;;;;;;4.60;3.72;;;;;;;;;;5117170;27;20027;-61
2021/10/11 00:22:43;;;;;;;5.85;3.38;;;;;;;;;;5115518;27;20027;-59
2021/10/11 00:25:09;;;;;;;9.00;4.28;;;;;;;;;;5112288;27;20094;-59
2021/10/11 00:27:35;;;;;;;11.27;4.15;;;;;;;;;;5109344;27;20468;-59
2021/10/11 00:30:01;;;;;;;3.97;3.17;;;;;;;;;;5111691;27;20031;-59
2021/10/11 00:32:27;;;;;;;3.60;2.88;;;;;;;;;;5109796;27;20084;-59
2021/10/11 00:34:52;;;;;;;5.28;3.70;;;;;;;;;;5117622;27;20035;-59
2021/10/11 00:37:18;;;;;;;4.18;3.22;;;;;;;;;;5112286;27;20113;-60
2021/10/11 00:39:43;;;;;;;6.22;3.58;;;;;;;;;;5117213;27;20058;-60
2021/10/11 00:42:09;;;;;;;7.55;4.03;;;;;;;;;;5091397;27;20457;-60
2021/10/11 00:44:34;;;;;;;4.22;3.03;;;;;;;;;;5107770;27;20106;-60
2021/10/11 00:47:00;;;;;;;4.13;3.40;;;;;;;;;;5109836;27;20043;-60
2021/10/11 00:49:25;;;;;;;4.28;3.20;;;;;;;;;;5108425;27;20062;-60
2021/10/11 00:51:51;;;;;;;4.63;3.47;;;;;;;;;;5098293;27;20092;-60
2021/10/11 00:54:17;;;;;;;4.63;2.58;;;;;;;;;;5112650;27;20036;-60
2021/10/11 00:56:44;;;;;;;6.28;4.00;;;;;;;;;;5108558;27;20406;-60
2021/10/11 00:59:10;;;;;;;5.28;4.13;;;;;;;;;;5117264;27;20433;-60
2021/10/11 01:01:35;;;;;;;6.20;4.55;;;;;;;;;;5094180;27;20054;-60
2021/10/11 01:04:05;;;;;;;7.15;4.55;;;;;;;;;;5106911;27;20071;-60
2021/10/11 01:06:36;;;;;;;4.30;3.50;;;;;;;;;;5114994;27;20031;-60
2021/10/11 01:09:03;;;;;;;6.65;3.75;;;;;;;;;;5105753;27;20054;-60
2021/10/11 01:11:28;;;;;;;5.50;3.70;;;;;;;;;;5112072;27;20455;-60
2021/10/11 01:13:54;;;;;;;4.60;3.80;;;;;;;;;;5110146;27;20034;-60
2021/10/11 01:16:19;;;;;;;4.80;4.07;;;;;;;;;;5106241;27;20031;-61
2021/10/11 01:18:46;;;;;;;4.20;3.03;;;;;;;;;;5111633;27;20039;-60
2021/10/11 01:21:11;;;;;;;4.55;3.92;;;;;;;;;;5108299;27;20150;-60
2021/10/11 01:23:36;;;;;;;5.00;3.63;;;;;;;;;;5108610;27;20106;-60
2021/10/11 01:26:02;;;;;;;4.38;3.72;;;;;;;;;;5111289;27;20043;-60
2021/10/11 01:28:28;;;;;;;4.90;3.33;;;;;;;;;;5119240;27;20038;-60
2021/10/11 01:30:55;;;;;;;11.43;2.95;;;;;;;;;;5115700;27;20478;-60
2021/10/11 01:33:20;;;;;;;3.90;3.28;;;;;;;;;;5110521;27;20084;-60
2021/10/11 01:35:46;;;;;;;6.35;3.30;;;;;;;;;;5117621;27;20032;-60
2021/10/11 01:38:12;;;;;;;4.28;3.83;;;;;;;;;;5108479;27;20035;-60
2021/10/11 01:40:38;;;;;;;6.40;3.65;;;;;;;;;;5109136;27;20085;-60
2021/10/11 01:43:05;;;;;;;4.72;2.90;;;;;;;;;;5112801;27;20034;-60
2021/10/11 01:45:31;;;;;;;7.93;3.72;;;;;;;;;;5109294;27;20046;-60
2021/10/11 01:47:56;;;;;;;5.25;3.83;;;;;;;;;;5114467;27;20035;-60
2021/10/11 01:50:22;;;;;;;6.25;3.05;;;;;;;;;;5112606;27;20118;-60
2021/10/11 01:52:47;;;;;;;3.80;2.88;;;;;;;;;;5109046;27;20042;-60
2021/10/11 01:55:13;;;;;;;5.20;3.53;;;;;;;;;;5110648;27;20388;-60
2021/10/11 01:57:38;;;;;;;4.13;3.28;;;;;;;;;;5110477;27;20042;-60
2021/10/11 02:00:06;;;;;;;3.50;3.00;;;;;;;;;;5108074;27;20089;-64
2021/10/11 02:02:32;;;;;;;3.78;3.08;;;;;;;;;;5108040;27;20491;-59
2021/10/11 02:04:57;;;;;;;4.82;3.75;;;;;;;;;;5111884;27;20023;-60
2021/10/11 02:07:23;;;;;;;3.72;2.95;;;;;;;;;;5109638;27;20092;-61
2021/10/11 02:09:48;;;;;;;3.35;2.78;;;;;;;;;;5115803;27;20553;-59
2021/10/11 02:12:14;;;;;;;4.25;3.13;;;;;;;;;;5110250;27;20038;-60
2021/10/11 02:14:40;;;;;;;5.15;3.60;;;;;;;;;;5108456;27;20019;-59
2021/10/11 02:17:05;;;;;;;3.47;2.80;;;;;;;;;;5115122;27;20122;-59
2021/10/11 02:19:30;;;;;;;5.22;4.20;;;;;;;;;;5110660;27;20043;-61
2021/10/11 02:21:56;;;;;;;3.83;2.70;;;;;;;;;;5091754;27;20069;-59
2021/10/11 02:24:21;;;;;;;3.25;2.42;;;;;;;;;;5101727;27;20024;-59
2021/10/11 02:26:47;;;;;;;6.07;3.38;;;;;;;;;;5116797;27;20019;-59
2021/10/11 02:29:12;;;;;;;3.90;3.47;;;;;;;;;;5088856;27;20397;-59
2021/10/11 02:31:38;;;;;;;5.40;4.07;;;;;;;;;;5106156;27;20100;-59
2021/10/11 02:34:03;;;;;;;5.20;3.00;;;;;;;;;;5106618;27;20046;-60
2021/10/11 02:36:29;;;;;;;5.13;3.42;;;;;;;;;;5105102;27;20070;-60
2021/10/11 02:38:54;;;;;;;3.30;2.45;;;;;;;;;;5095975;27;20027;-60
2021/10/11 02:41:21;;;;;;;3.97;3.13;;;;;;;;;;5108921;27;20415;-60
2021/10/11 02:43:47;;;;;;;6.28;4.57;;;;;;;;;;5107160;27;20019;-60
2021/10/11 02:46:13;;;;;;;4.40;3.58;;;;;;;;;;5107522;27;20122;-60
2021/10/11 02:48:38;;;;;;;4.30;2.97;;;;;;;;;;5106669;27;20456;-60
2021/10/11 02:51:04;;;;;;;4.25;3.40;;;;;;;;;;5110641;27;20424;-60
2021/10/11 02:53:29;;;;;;;3.60;3.05;;;;;;;;;;5103136;27;20036;-60
2021/10/11 02:55:55;;;;;;;5.50;3.53;;;;;;;;;;5096350;28;20396;-60
2021/10/11 02:58:20;;;;;;;5.45;3.17;;;;;;;;;;5106847;27;20095;-60
2021/10/11 03:00:46;;;;;;;3.97;3.25;;;;;;;;;;5093094;27;20032;-59
2021/10/11 03:03:11;;;;;;;4.95;3.17;;;;;;;;;;5091284;27;20084;-61
2021/10/11 03:05:37;;;;;;;5.65;3.53;;;;;;;;;;5110856;27;20019;-60
2021/10/11 03:08:02;;;;;;;4.70;3.40;;;;;;;;;;5111665;27;20045;-59
2021/10/11 03:10:28;;;;;;;4.07;3.08;;;;;;;;;;5106169;27;20524;-60
2021/10/11 03:12:53;;;;;;;4.82;3.67;;;;;;;;;;5108915;27;20032;-60
2021/10/11 03:15:19;;;;;;;4.60;3.13;;;;;;;;;;5108350;27;20054;-60
2021/10/11 03:17:44;;;;;;;3.63;2.58;;;;;;;;;;5110640;27;20031;-60
2021/10/11 03:20:10;;;;;;;5.18;3.50;;;;;;;;;;5110207;27;20098;-60
2021/10/11 03:22:35;;;;;;;4.15;3.13;;;;;;;;;;5110048;27;20031;-60
2021/10/11 03:25:01;;;;;;;4.35;3.42;;;;;;;;;;5109733;27;20456;-59
2021/10/11 03:27:26;;;;;;;4.13;3.60;;;;;;;;;;5110379;27;20122;-59
2021/10/11 03:29:52;;;;;;;9.07;3.90;;;;;;;;;;5107570;27;20399;-59
2021/10/11 03:32:17;;;;;;;5.55;3.58;;;;;;;;;;5109604;28;20070;-59
2021/10/11 03:34:43;;;;;;;5.25;3.38;;;;;;;;;;5108339;28;20521;-59
2021/10/11 03:37:08;;;;;;;5.28;3.65;;;;;;;;;;5113467;28;20180;-60
2021/10/11 03:39:34;;;;;;;4.15;3.30;;;;;;;;;;5079199;28;20028;-59
2021/10/11 03:41:59;;;;;;;7.45;4.40;;;;;;;;;;5111670;28;20039;-59
2021/10/11 03:44:24;;;;;;;7.10;4.22;;;;;;;;;;5093975;28;20476;-59
2021/10/11 03:46:50;;;;;;;7.35;4.53;;;;;;;;;;5087839;28;20028;-59
2021/10/11 03:49:15;;;;;;;6.40;5.35;;;;;;;;;;5108918;28;20031;-60
2021/10/11 03:51:41;;;;;;;5.22;4.00;;;;;;;;;;5105330;28;20052;-60
2021/10/11 03:54:06;;;;;;;5.25;4.00;;;;;;;;;;5111017;28;20137;-60
2021/10/11 03:56:31;;;;;;;4.85;4.03;;;;;;;;;;5115924;28;20028;-60
2021/10/11 03:58:57;;;;;;;5.07;3.38;;;;;;;;;;5094091;28;20477;-60
2021/10/11 04:01:22;;;;;;;4.45;3.20;;;;;;;;;;5115021;28;20107;-60
2021/10/11 04:03:49;;;;;;;6.38;4.18;;;;;;;;;;5113930;28;20027;-61
2021/10/11 04:06:15;;;;;;;4.65;3.40;;;;;;;;;;5117773;28;20023;-59
2021/10/11 04:08:43;;;;;;;5.65;3.85;;;;;;;;;;5107255;28;20036;-59
2021/10/11 04:13:34;;;;;;;3.20;2.67;;;;;;;;;;5106765;28;20480;-59
2021/10/11 04:16:00;;;;;;;5.25;3.90;;;;;;;;;;5109741;28;20032;-59
2021/10/11 04:18:25;;;;;;;6.13;3.22;;;;;;;;;;5108046;28;20092;-59
2021/10/11 04:20:51;;;;;;;4.50;3.00;;;;;;;;;;5115236;28;20109;-59
2021/10/11 04:23:16;;;;;;;5.63;3.97;;;;;;;;;;5105931;28;20028;-59
2021/10/11 04:25:42;;;;;;;4.68;3.22;;;;;;;;;;5106000;28;20115;-59
2021/10/11 04:28:09;;;;;;;5.53;2.95;;;;;;;;;;5111849;28;20023;-59
2021/10/11 04:30:35;;;;;;;3.38;2.75;;;;;;;;;;5104798;28;20119;-59
2021/10/11 04:33:00;;;;;;;5.72;3.47;;;;;;;;;;5108946;28;20528;-59
2021/10/11 04:35:27;;;;;;;3.63;2.92;;;;;;;;;;5110510;28;20034;-59
2021/10/11 04:37:52;;;;;;;4.32;2.70;;;;;;;;;;5108009;28;20452;-59
2021/10/11 04:40:19;;;;;;;7.85;4.38;;;;;;;;;;5109027;28;20076;-59
2021/10/11 04:42:44;;;;;;;7.32;4.78;;;;;;;;;;5106136;28;20477;-59
2021/10/11 04:45:10;;;;;;;6.53;4.47;;;;;;;;;;5106428;27;20115;-60
2021/10/11 04:47:36;;;;;;;5.30;3.67;;;;;;;;;;5112874;27;20414;-61
2021/10/11 04:50:02;;;;;;;4.20;3.65;;;;;;;;;;5096430;28;20032;-61
2021/10/11 04:52:28;;;;;;;6.32;4.40;;;;;;;;;;5107693;27;20027;-60
2021/10/11 04:54:53;;;;;;;5.13;3.83;;;;;;;;;;5095259;27;20036;-60
2021/10/11 04:57:19;;;;;;;4.43;2.92;;;;;;;;;;5108986;27;20039;-60
2021/10/11 04:59:44;;;;;;;6.07;4.10;;;;;;;;;;5115064;27;20429;-60
2021/10/11 05:02:10;;;;;;;5.13;3.95;;;;;;;;;;5110439;27;20091;-60
2021/10/11 05:04:35;;;;;;;6.22;4.30;;;;;;;;;;5095370;28;20043;-59
2021/10/11 05:07:01;;;;;;;4.57;3.97;;;;;;;;;;5109545;27;20091;-60
2021/10/11 05:09:26;;;;;;;5.28;3.80;;;;;;;;;;5090779;27;20368;-61
2021/10/11 05:11:51;;;;;;;5.80;3.97;;;;;;;;;;5110943;27;20067;-60
2021/10/11 05:14:17;;;;;;;5.80;3.95;;;;;;;;;;5114035;27;20427;-61
2021/10/11 05:16:42;;;;;;;4.63;2.75;;;;;;;;;;5109498;27;20031;-60
2021/10/11 05:19:10;;;;;;;3.85;3.35;;;;;;;;;;5110783;27;20058;-60
2021/10/11 05:21:35;;;;;;;4.78;3.78;;;;;;;;;;5105913;27;20028;-60
2021/10/11 05:24:01;;;;;;;4.80;3.75;;;;;;;;;;5112851;27;20041;-60
2021/10/11 05:26:27;;;;;;;5.72;3.70;;;;;;;;;;5108844;27;20031;-60
2021/10/11 05:28:53;;;;;;;4.97;3.72;;;;;;;;;;5108229;27;20024;-60
2021/10/11 05:31:19;;;;;;;5.68;3.63;;;;;;;;;;5113994;27;20790;-60
2021/10/11 05:33:44;;;;;;;4.45;3.72;;;;;;;;;;5094378;28;20019;-60
2021/10/11 05:36:10;;;;;;;4.38;3.33;;;;;;;;;;5109497;27;20028;-60
2021/10/11 05:38:35;;;;;;;5.63;4.40;;;;;;;;;;5109272;27;20437;-60
2021/10/11 05:41:01;;;;;;;5.32;3.78;;;;;;;;;;5108333;27;20036;-60
2021/10/11 05:43:27;;;;;;;5.65;4.35;;;;;;;;;;5108458;27;20480;-60
2021/10/11 05:45:52;;;;;;;6.15;4.80;;;;;;;;;;5114966;27;20031;-60
2021/10/11 05:48:18;;;;;;;10.50;5.32;;;;;;;;;;5106509;27;20114;-60
2021/10/11 05:50:43;;;;;;;4.38;3.30;;;;;;;;;;5110054;27;20088;-60
2021/10/11 05:53:09;;;;;;;9.05;5.03;;;;;;;;;;5112366;27;20039;-60
2021/10/11 05:55:34;;;;;;;5.32;3.85;;;;;;;;;;5112253;27;20027;-60
2021/10/11 05:57:59;;;;;;;4.65;3.80;;;;;;;;;;5110830;27;20513;-60
2021/10/11 06:00:25;;;;;;;5.63;4.20;;;;;;;;;;5097717;27;20053;-60
2021/10/11 06:02:51;;;;;;;6.22;4.00;;;;;;;;;;5108452;27;20135;-60
2021/10/11 06:05:16;;;;;;;5.07;3.63;;;;;;;;;;5098790;27;20027;-61
2021/10/11 06:07:42;;;;;;;5.57;3.97;;;;;;;;;;5111614;27;20330;-60
2021/10/11 06:10:08;;;;;;;5.78;3.60;;;;;;;;;;5106736;27;20040;-60
2021/10/11 06:12:33;;;;;;;5.32;4.20;;;;;;;;;;5112699;27;20164;-60
2021/10/11 06:14:59;;;;;;;4.15;3.65;;;;;;;;;;5111670;27;20039;-59
2021/10/11 06:17:25;;;;;;;8.95;4.90;;;;;;;;;;5114187;27;20023;-59
2021/10/11 06:19:52;;;;;;;5.28;3.75;;;;;;;;;;5115347;27;20040;-59
2021/10/11 06:22:17;;;;;;;8.15;4.60;;;;;;;;;;5112300;27;20038;-59
2021/10/11 06:24:43;;;;;;;6.13;4.05;;;;;;;;;;5108799;27;20032;-59
2021/10/11 06:27:08;;;;;;;4.38;3.85;;;;;;;;;;5109221;27;20467;-59
2021/10/11 06:29:33;;;;;;;8.40;4.05;;;;;;;;;;5110795;27;20475;-59
2021/10/11 06:31:59;;;;;;;4.18;3.65;;;;;;;;;;5111210;27;20031;-60
2021/10/11 06:34:24;;;;;;;5.35;4.15;;;;;;;;;;5107803;27;20114;-59
2021/10/11 06:36:50;;;;;;;4.93;4.32;;;;;;;;;;5114534;27;20249;-59
2021/10/11 06:39:15;;;;;;;7.15;3.80;;;;;;;;;;5111444;27;20128;-59
2021/10/11 06:41:40;;;;;;;6.38;4.38;;;;;;;;;;5110676;27;20062;-60
2021/10/11 06:44:06;;;;;;;5.32;4.25;;;;;;;;;;5103685;27;20114;-60
2021/10/11 06:46:31;;;;;;;4.78;4.10;;;;;;;;;;5104410;27;20372;-59
2021/10/11 06:48:57;;;;;;;6.28;4.43;;;;;;;;;;5096192;28;20111;-59
2021/10/11 06:51:23;;;;;;;6.00;4.40;;;;;;;;;;5104513;27;20032;-59
2021/10/11 06:53:48;;;;;;;5.45;4.47;;;;;;;;;;5110433;27;20039;-59
2021/10/11 06:56:13;;;;;;;4.95;4.20;;;;;;;;;;5112590;27;20697;-59
2021/10/11 06:58:39;;;;;;;4.55;4.07;;;;;;;;;;5104986;27;20027;-59
2021/10/11 07:01:04;;;;;;;8.25;4.47;;;;;;;;;;5107373;27;20031;-59
2021/10/11 07:03:30;;;;;;;4.22;3.63;;;;;;;;;;5100676;27;20108;-59
2021/10/11 07:06:00;;;;;;;4.55;3.75;;;;;;;;;;5111219;27;20360;-59
2021/10/11 07:08:26;;;;;;;4.93;3.58;;;;;;;;;;5111966;27;20441;-59
2021/10/11 07:10:54;;;;;;;6.93;4.65;;;;;;;;;;5111049;27;20046;-59
2021/10/11 07:13:21;;;;;;;5.20;3.55;;;;;;;;;;5111267;27;20081;-59
2021/10/11 07:15:46;;;;;;;5.15;3.63;;;;;;;;;;5105573;27;20034;-59
2021/10/11 07:18:12;;;;;;;6.05;4.28;;;;;;;;;;5107399;27;20035;-60
2021/10/11 07:20:42;;;;;;;5.25;3.80;;;;;;;;;;5092547;28;20038;-59
2021/10/11 07:23:08;;;;;;;7.82;4.22;;;;;;;;;;5109819;27;20127;-59
2021/10/11 07:25:34;;;;;;;4.88;4.00;;;;;;;;;;5105125;27;20101;-59
2021/10/11 07:27:59;;;;;;;4.53;4.07;;;;;;;;;;5110266;27;20640;-59
2021/10/11 07:30:25;;;;;;;8.07;5.00;;;;;;;;;;5103740;28;20057;-60
2021/10/11 07:32:50;;;;;;;4.93;3.95;;;;;;;;;;5106431;28;20464;-59
2021/10/11 07:35:16;;;;;;;4.57;3.63;;;;;;;;;;5105107;28;20043;-59
2021/10/11 07:37:41;;;;;;;5.53;4.45;;;;;;;;;;5110466;27;20122;-59
2021/10/11 07:40:07;;;;;;;7.03;4.30;;;;;;;;;;5098613;28;20036;-59
2021/10/11 07:42:32;;;;;;;5.60;4.85;;;;;;;;;;5093703;28;20032;-59
2021/10/11 07:44:58;;;;;;;8.52;4.93;;;;;;;;;;5109292;28;20050;-59
2021/10/11 07:47:23;;;;;;;6.63;3.97;;;;;;;;;;5113294;28;20379;-59
2021/10/11 07:49:49;;;;;;;10.00;6.35;;;;;;;;;;5111730;28;20065;-60
2021/10/11 07:52:14;;;;;;;6.88;4.68;;;;;;;;;;5109178;28;20035;-59
2021/10/11 07:54:40;;;;;;;5.63;4.47;;;;;;;;;;5110203;28;20668;-59
2021/10/11 07:57:05;;;;;;;6.72;4.80;;;;;;;;;;5092376;28;20106;-59
2021/10/11 07:59:30;;;;;;;10.57;4.82;;;;;;;;;;5106346;28;20028;-59
2021/10/11 08:01:56;;;;;;;10.27;5.40;;;;;;;;;;5111532;28;20036;-58
2021/10/11 08:04:22;;;;;;;5.47;4.10;;;;;;;;;;5108466;28;20400;-59
2021/10/11 08:06:47;;;;;;;6.05;5.03;;;;;;;;;;5108236;28;20038;-58
2021/10/11 08:09:13;;;;;;;6.22;4.68;;;;;;;;;;5110424;28;20104;-58
2021/10/11 08:11:42;;;;;;;5.35;4.63;;;;;;;;;;5088610;28;20023;-59
2021/10/11 08:14:07;;;;;;;5.35;4.45;;;;;;;;;;5093275;28;20031;-60
2021/10/11 08:16:33;;;;;;;5.55;4.40;;;;;;;;;;5107936;28;20650;-60
2021/10/11 08:18:58;;;;;;;5.57;5.00;;;;;;;;;;5103685;28;20691;-60
2021/10/11 08:21:24;;;;;;;8.13;5.53;;;;;;;;;;5113353;27;20096;-60
2021/10/11 08:23:53;;;;;;;6.15;4.30;;;;;;;;;;5093986;28;20024;-60
2021/10/11 08:26:18;;;;;;;5.45;4.93;;;;;;;;;;5108800;27;20075;-60
2021/10/11 08:28:44;;;;;;;14.50;5.63;;;;;;;;;;5116382;27;20449;-61
2021/10/11 08:31:09;;;;;;;6.45;4.40;;;;;;;;;;5104870;27;20041;-60
2021/10/11 08:33:35;;;;;;;5.95;4.32;;;;;;;;;;5094390;28;20032;-60
2021/10/11 08:36:01;;;;;;;6.68;4.55;;;;;;;;;;5116694;27;20044;-60
2021/10/11 08:38:27;;;;;;;7.28;5.70;;;;;;;;;;5112771;27;20036;-61
2021/10/11 08:40:52;;;;;;;6.95;5.00;;;;;;;;;;5115022;27;20148;-60
2021/10/11 08:43:18;;;;;;;6.07;4.30;;;;;;;;;;5112224;27;20032;-60
2021/10/11 08:45:47;;;;;;;5.22;4.30;;;;;;;;;;5111129;27;20024;-59
2021/10/11 08:48:13;;;;;;;6.78;5.60;;;;;;;;;;5112373;27;20036;-59
2021/10/11 08:50:38;;;;;;;6.03;4.90;;;;;;;;;;5106854;27;20439;-59
2021/10/11 08:53:04;;;;;;;5.53;4.35;;;;;;;;;;5112106;27;20027;-59
2021/10/11 08:55:30;;;;;;;7.22;4.65;;;;;;;;;;5094309;28;20035;-60
2021/10/11 08:58:04;;;;;;;6.75;5.05;;;;;;;;;;5110242;27;20028;-58
2021/10/11 09:00:34;;;;;;;8.93;4.35;;;;;;;;;;5104452;27;20038;-58
2021/10/11 09:03:01;;;;;;;6.07;5.10;;;;;;;;;;5113831;27;20122;-58
2021/10/11 09:05:34;;;;;;;7.22;6.13;;;;;;;;;;5113063;27;20595;-58
2021/10/11 09:08:02;;;;;;;6.20;4.78;;;;;;;;;;5098701;27;20361;-58
2021/10/11 09:10:30;;;;;;;14.65;4.25;;;;;;;;;;5112576;27;20347;-58
2021/10/11 09:12:56;;;;;;;8.85;4.97;;;;;;;;;;5112562;27;20036;-59
2021/10/11 09:15:26;;;;;;;6.68;4.70;;;;;;;;;;5109289;27;20050;-58
2021/10/11 09:18:04;;;;;;;7.18;5.38;;;;;;;;;;5110580;27;20051;-58
2021/10/11 09:20:29;;;;;;;7.10;4.40;;;;;;;;;;5105240;28;20380;-58
2021/10/11 09:22:56;;;;;;;6.72;4.38;;;;;;;;;;5104237;27;20035;-57
2021/10/11 09:25:32;;;;;;;5.22;4.70;;;;;;;;;;5110889;27;20027;-58
2021/10/11 09:27:57;;;;;;;4.97;4.15;;;;;;;;;;5093133;28;20118;-58
2021/10/11 09:30:29;;;;;;;6.88;4.68;;;;;;;;;;5108394;27;20268;-58
2021/10/11 09:33:14;;;;;;;7.50;5.80;;;;;;;;;;5109607;27;20038;-59
2021/10/11 09:35:40;;;;;;;8.00;5.57;;;;;;;;;;5113876;27;20132;-59
2021/10/11 09:38:23;;;;;;;6.30;5.25;;;;;;;;;;5111837;27;20028;-59
2021/10/11 09:40:54;;;;;;;6.65;5.55;;;;;;;;;;5112844;27;20059;-59
2021/10/11 09:43:22;;;;;;;6.35;5.40;;;;;;;;;;5111192;27;20126;-59
2021/10/11 09:45:48;;;;;;;6.45;4.95;;;;;;;;;;5116534;27;20033;-59
2021/10/11 09:48:14;;;;;;;5.63;4.85;;;;;;;;;;5112794;27;20035;-59
2021/10/11 09:50:40;;;;;;;7.45;5.45;;;;;;;;;;5111710;27;20036;-58
2021/10/11 09:53:08;;;;;;;5.68;5.00;;;;;;;;;;5113487;27;20050;-59
2021/10/11 09:55:34;;;;;;;5.20;4.20;;;;;;;;;;5113312;27;20036;-59
2021/10/11 09:58:00;;;;;;;8.98;5.78;;;;;;;;;;5108690;27;20488;-59
2021/10/11 10:00:26;;;;;;;6.97;5.63;;;;;;;;;;5109774;27;20046;-59
2021/10/11 10:02:54;;;;;;;7.93;6.00;;;;;;;;;;5113184;27;20035;-59
2021/10/11 10:05:33;;;;;;;11.90;6.60;;;;;;;;;;5111063;27;20028;-59
2021/10/11 10:08:03;;;;;;;11.10;7.10;;;;;;;;;;5108585;27;20036;-59
2021/10/11 10:10:30;;;;;;;6.07;5.13;;;;;;;;;;5112456;27;20611;-59
2021/10/11 10:12:56;;;;;;;8.07;5.32;;;;;;;;;;5114886;27;20064;-60
2021/10/11 10:15:36;;;;;;;7.50;6.70;;;;;;;;;;5106522;27;20070;-60
2021/10/11 10:18:07;;;;;;;6.13;5.28;;;;;;;;;;5109543;27;20036;-59
2021/10/11 10:20:35;;;;;;;9.27;6.50;;;;;;;;;;5109727;27;20092;-60
2021/10/11 10:23:01;;;;;;;7.97;5.88;;;;;;;;;;5113136;27;20028;-59
2021/10/11 10:25:27;;;;;;;10.18;6.63;;;;;;;;;;5109287;27;20457;-59
2021/10/11 10:28:07;;;;;;;8.82;6.38;;;;;;;;;;5112373;27;20027;-59
2021/10/11 10:30:33;;;;;;;9.20;6.70;;;;;;;;;;5110701;27;20041;-59
2021/10/11 10:33:01;;;;;;;9.25;5.57;;;;;;;;;;5112013;27;20269;-59
2021/10/11 10:35:32;;;;;;;12.93;7.72;;;;;;;;;;5114658;27;20035;-59
2021/10/11 10:37:59;;;;;;;9.63;6.97;;;;;;;;;;5109185;27;20147;-59
2021/10/11 10:40:30;;;;;;;8.90;7.32;;;;;;;;;;5111273;27;20114;-59
2021/10/11 10:43:12;;;;;;;9.40;6.15;;;;;;;;;;5108928;27;20135;-59
2021/10/11 10:45:38;;;;;;;8.10;6.65;;;;;;;;;;5106648;27;20031;-59
2021/10/11 10:48:21;;;;;;;9.20;6.03;;;;;;;;;;5095415;28;20031;-59
2021/10/11 10:50:47;;;;;;;8.13;5.70;;;;;;;;;;5109731;27;20027;-59
2021/10/11 10:53:12;;;;;;;9.23;6.90;;;;;;;;;;5111312;27;20027;-59
2021/10/11 10:55:40;;;;;;;15.32;7.05;;;;;;;;;;5106820;27;20027;-59
2021/10/11 10:58:11;;;;;;;9.85;7.15;;;;;;;;;;5112477;27;20392;-59
2021/10/11 11:00:37;;;;;;;;;;;;;;;;;;5104787;27;20050;-59
2021/10/11 11:03:03;;;;;;;8.48;6.57;;;;;;;;;;5111073;27;19907;-59
2021/10/11 11:05:30;;;;;;;10.60;6.50;;;;;;;;;;5110052;27;20479;-59
2021/10/11 11:07:56;;;;;;;9.77;6.97;;;;;;;;;;5105298;27;20028;-59
2021/10/11 11:10:33;;;;;;;14.23;7.05;;;;;;;;;;5106423;27;20023;-59
2021/10/11 11:13:01;;;;;;;7.70;6.75;;;;;;;;;;5104397;27;20535;-58
2021/10/11 11:15:28;;;;;;;10.00;5.90;;;;;;;;;;5102028;27;20365;-59
2021/10/11 11:17:56;;;;;;;11.32;9.15;;;;;;;;;;5110179;27;20110;-59
2021/10/11 11:20:28;;;;;;;11.90;6.80;;;;;;;;;;5107075;27;20032;-59
2021/10/11 11:22:55;;;;;;;8.57;6.72;;;;;;;;;;5105127;27;20042;-59
2021/10/11 11:25:29;;;;;;;12.50;7.22;;;;;;;;;;5108640;27;20028;-59
2021/10/11 11:27:56;;;;;;;9.23;7.47;;;;;;;;;;5110183;27;20050;-59
2021/10/11 11:30:23;;;;;;;9.23;7.88;;;;;;;;;;5108032;27;20126;-59
2021/10/11 11:32:53;;;;;;;17.13;8.18;;;;;;;;;;5110547;27;20054;-59
2021/10/11 11:35:29;;;;;;;8.85;7.45;;;;;;;;;;5108605;27;20074;-58
2021/10/11 11:38:00;;;;;;;11.45;7.80;;;;;;;;;;5111509;28;20042;-59
2021/10/11 11:40:29;;;;;;;8.05;6.85;;;;;;;;;;5109359;27;20062;-59
2021/10/11 11:42:54;;;;;;;8.82;6.18;;;;;;;;;;5093107;28;20045;-59
2021/10/11 11:45:23;;;;;;;9.13;8.23;;;;;;;;;;5106080;28;20035;-59
2021/10/11 11:47:49;;;;;;;12.82;7.13;;;;;;;;;;5111259;28;20032;-59
2021/10/11 11:50:22;;;;;;;11.85;6.65;;;;;;;;;;5114420;28;20388;-59
2021/10/11 11:52:58;;;;;;;6.88;5.75;;;;;;;;;;5106775;28;20465;-59
2021/10/11 11:55:24;;;;;;;11.43;6.43;;;;;;;;;;5110311;27;20047;-59
2021/10/11 11:57:49;;;;;;;11.10;6.22;;;;;;;;;;5095797;27;20425;-59
2021/10/11 12:00:15;;;;;;;11.40;6.53;;;;;;;;;;5110526;27;20038;-59
2021/10/11 12:02:44;;;;;;;10.63;5.35;;;;;;;;;;5110516;27;20027;-59
2021/10/11 12:05:11;;;;;;;10.05;6.68;;;;;;;;;;5109348;27;20632;-58
2021/10/11 12:07:39;;;;;;;10.32;6.95;;;;;;;;;;5094400;27;20027;-59
2021/10/11 12:10:07;;;;;;;8.30;6.38;;;;;;;;;;5112177;27;20056;-59
2021/10/11 12:12:34;;;;;;;6.97;5.90;;;;;;;;;;5111224;27;20035;-58
2021/10/11 12:14:59;;;;;;;9.95;6.32;;;;;;;;;;5110666;27;20043;-58
2021/10/11 12:17:37;;;;;;;7.93;6.03;;;;;;;;;;5110417;27;20142;-59
2021/10/11 12:20:03;;;;;;;9.30;7.53;;;;;;;;;;5112209;27;20043;-58
2021/10/11 12:22:32;;;;;;;7.43;6.45;;;;;;;;;;5115827;27;20031;-58
2021/10/11 12:25:04;;;;;;;9.00;6.72;;;;;;;;;;5111974;27;20087;-59
2021/10/11 12:27:29;;;;;;;8.52;6.85;;;;;;;;;;5108542;27;20024;-59
2021/10/11 12:30:00;;;;;;;10.02;6.25;;;;;;;;;;5113116;27;20030;-59
2021/10/11 12:32:33;;;;;;;9.48;7.93;;;;;;;;;;5112429;27;20035;-59
2021/10/11 12:35:00;;;;;;;9.60;6.88;;;;;;;;;;5113087;27;20536;-59
2021/10/11 12:37:34;;;;;;;9.75;6.28;;;;;;;;;;5116238;27;20453;-60
2021/10/11 12:40:00;;;;;;;10.20;5.97;;;;;;;;;;5095357;28;20043;-60
2021/10/11 12:42:26;;;;;;;9.18;6.43;;;;;;;;;;5110882;27;20046;-59
2021/10/11 12:44:57;;;;;;;10.23;7.20;;;;;;;;;;5112573;27;20031;-59
2021/10/11 12:47:27;;;;;;;10.80;7.75;;;;;;;;;;5098505;27;20035;-60
2021/10/11 12:49:54;;;;;;;10.02;6.97;;;;;;;;;;5114940;27;20484;-59
2021/10/11 12:52:29;;;;;;;11.70;9.00;;;;;;;;;;5113578;27;20040;-60
2021/10/11 12:55:04;;;;;;;8.98;6.43;;;;;;;;;;5111575;27;20037;-59
2021/10/11 12:57:29;;;;;;;10.90;6.95;;;;;;;;;;5114881;27;20032;-60
2021/10/11 12:59:55;;;;;;;7.20;5.72;;;;;;;;;;5113204;27;20039;-59
2021/10/11 13:02:20;;;;;;;6.93;6.00;;;;;;;;;;5107636;27;20476;-59
2021/10/11 13:04:45;;;;;;;7.32;6.32;;;;;;;;;;5111999;27;20027;-60
2021/10/11 13:07:11;;;;;;;6.82;6.13;;;;;;;;;;5112266;27;20076;-59
2021/10/11 13:09:36;;;;;;;16.67;6.90;;;;;;;;;;5108498;27;20024;-60
2021/10/11 13:12:02;;;;;;;10.20;6.53;;;;;;;;;;5107631;27;20115;-60
2021/10/11 13:14:27;;;;;;;11.77;9.63;;;;;;;;;;5108078;27;20089;-60
2021/10/11 13:16:53;;;;;;;9.35;7.82;;;;;;;;;;5109560;27;20109;-59
2021/10/11 13:19:18;;;;;;;11.63;7.00;;;;;;;;;;5107637;27;20041;-60
2021/10/11 13:21:43;;;;;;;6.05;5.45;;;;;;;;;;5087792;27;20635;-60
2021/10/11 13:24:09;;;;;;;7.68;6.13;;;;;;;;;;5112934;27;20031;-60
2021/10/11 13:26:35;;;;;;;10.88;7.20;;;;;;;;;;5115305;27;20497;-60
2021/10/11 13:29:15;;;;;;;9.02;6.53;;;;;;;;;;5117880;27;20041;-60
2021/10/11 13:42:58;;;;;;;9.52;7.30;;;;;;;;;;5094385;27;20028;-60
2021/10/11 14:28:54;;;;;;;10.23;7.32;;;;;;;;;;5110627;27;20119;-60
2021/10/11 14:31:27;;;;;;;10.50;7.47;;;;;;;;;;5111678;27;20035;-60
2021/10/11 14:34:11;;;;;;;10.88;7.53;;;;;;;;;;5110858;27;20052;-60
2021/10/11 15:59:35;;;;;;;10.15;6.45;;;;;;;;;;5109053;28;20444;-59
2021/10/11 16:02:05;;;;;;;8.45;6.32;;;;;;;;;;5104109;28;20039;-60
2021/10/11 16:04:32;;;;;;;10.57;6.22;;;;;;;;;;5114026;28;20439;-59
2021/10/11 16:07:03;;;;;;;9.52;7.53;;;;;;;;;;5112986;28;20035;-59
2021/10/11 16:09:30;;;;;;;11.60;8.52;;;;;;;;;;5109752;28;20038;-59
2021/10/11 16:11:56;;;;;;;12.50;7.15;;;;;;;;;;5108799;28;20082;-59
2021/10/11 16:14:21;;;;;;;9.20;7.28;;;;;;;;;;5092855;28;20092;-59
2021/10/11 16:16:47;;;;;;;8.13;6.53;;;;;;;;;;5108592;28;20414;-60
2021/10/11 16:19:12;;;;;;;7.28;6.07;;;;;;;;;;5112428;28;20028;-60
2021/10/11 16:21:37;;;;;;;9.57;8.07;;;;;;;;;;5093270;28;20553;-59
2021/10/11 16:24:03;;;;;;;9.10;7.35;;;;;;;;;;5107344;28;20051;-60
2021/10/11 16:26:29;;;;;;;9.20;6.90;;;;;;;;;;5108788;28;20114;-60
2021/10/11 16:28:55;;;;;;;9.65;7.60;;;;;;;;;;5104019;28;20027;-59
2021/10/11 16:31:20;;;;;;;9.57;8.65;;;;;;;;;;5107296;28;20123;-60
2021/10/11 16:33:47;;;;;;;14.13;6.60;;;;;;;;;;5108140;28;20035;-60
2021/10/11 16:36:13;;;;;;;10.50;7.15;;;;;;;;;;5103680;28;20032;-61
2021/10/11 16:38:40;;;;;;;8.20;7.40;;;;;;;;;;5106568;28;20036;-60
2021/10/11 16:41:08;;;;;;;11.50;9.05;;;;;;;;;;5106819;27;20044;-60
2021/10/11 16:43:35;;;;;;;10.07;6.97;;;;;;;;;;5106982;27;20031;-60
2021/10/11 16:46:02;;;;;;;10.00;8.18;;;;;;;;;;5112016;27;20464;-60
2021/10/11 16:48:27;;;;;;;9.10;6.82;;;;;;;;;;5108055;27;20107;-60
2021/10/11 16:50:53;;;;;;;9.85;8.13;;;;;;;;;;5105897;27;20032;-60
2021/10/11 16:53:18;;;;;;;11.60;7.28;;;;;;;;;;5097329;27;20031;-60
2021/10/11 16:55:44;;;;;;;8.63;7.18;;;;;;;;;;5090889;28;20028;-59
2021/10/11 16:58:12;;;;;;;14.25;7.80;;;;;;;;;;5105546;27;20036;-59